sensor_id;sensor_type;location;lat;lon;timestamp;P1;durP1;ratioP1;P2;durP2;ratioP2
28481;SDS011;15703;49.588;6.260;2022-12-07T00:01:34;17.27;;;12.53;;
28481;SDS011;15703;49.588;6.260;2022-12-07T00:03:58;17.83;;;12.43;;
28481;SDS011;15703;49.588;6.260;2022-12-07T00:06:26;18.13;;;12.23;;
28481;SDS011;15703;49.588;6.260;2022-12-07T00:08:49;16.80;;;12.53;;
28481;SDS011;15703;49.588;6.260;2022-12-07T00:11:15;19.57;;;12.67;;
28481;SDS011;15703;49.588;6.260;2022-12-07T00:13:38;18.73;;;13.23;;
28481;SDS011;15703;49.588;6.260;2022-12-07T00:16:05;19.23;;;13.03;;
28481;SDS011;15703;49.588;6.260;2022-12-07T00:18:28;19.57;;;12.50;;
28481;SDS011;15703;49.588;6.260;2022-12-07T00:20:50;20.53;;;13.93;;
28481;SDS011;15703;49.588;6.260;2022-12-07T00:23:12;19.77;;;13.00;;
28481;SDS011;15703;49.588;6.260;2022-12-07T00:25:35;20.10;;;13.03;;
28481;SDS011;15703;49.588;6.260;2022-12-07T00:27:57;20.43;;;13.47;;
28481;SDS011;15703;49.588;6.260;2022-12-07T00:30:19;18.67;;;12.97;;
28481;SDS011;15703;49.588;6.260;2022-12-07T00:32:42;19.37;;;14.17;;
28481;SDS011;15703;49.588;6.260;2022-12-07T00:35:04;22.87;;;14.23;;
28481;SDS011;15703;49.588;6.260;2022-12-07T00:37:27;17.50;;;13.13;;
28481;SDS011;15703;49.588;6.260;2022-12-07T00:39:49;17.33;;;13.13;;
28481;SDS011;15703;49.588;6.260;2022-12-07T00:42:11;19.53;;;14.50;;
28481;SDS011;15703;49.588;6.260;2022-12-07T00:44:33;19.60;;;13.20;;
28481;SDS011;15703;49.588;6.260;2022-12-07T00:46:55;21.43;;;13.40;;
28481;SDS011;15703;49.588;6.260;2022-12-07T00:49:18;20.23;;;13.43;;
28481;SDS011;15703;49.588;6.260;2022-12-07T00:51:40;19.87;;;13.27;;
28481;SDS011;15703;49.588;6.260;2022-12-07T00:54:03;19.23;;;13.93;;
28481;SDS011;15703;49.588;6.260;2022-12-07T00:56:26;20.97;;;14.77;;
28481;SDS011;15703;49.588;6.260;2022-12-07T00:58:49;19.77;;;13.77;;
28481;SDS011;15703;49.588;6.260;2022-12-07T01:01:12;20.03;;;13.67;;
28481;SDS011;15703;49.588;6.260;2022-12-07T01:03:34;20.50;;;14.17;;
28481;SDS011;15703;49.588;6.260;2022-12-07T01:05:57;25.30;;;15.37;;
28481;SDS011;15703;49.588;6.260;2022-12-07T01:08:19;18.57;;;13.97;;
28481;SDS011;15703;49.588;6.260;2022-12-07T01:10:42;21.53;;;14.73;;
28481;SDS011;15703;49.588;6.260;2022-12-07T01:13:04;21.67;;;14.00;;
28481;SDS011;15703;49.588;6.260;2022-12-07T01:15:26;20.70;;;13.43;;
28481;SDS011;15703;49.588;6.260;2022-12-07T01:17:48;21.13;;;13.63;;
28481;SDS011;15703;49.588;6.260;2022-12-07T01:20:11;21.87;;;15.43;;
28481;SDS011;15703;49.588;6.260;2022-12-07T01:22:37;19.47;;;14.13;;
28481;SDS011;15703;49.588;6.260;2022-12-07T01:24:59;23.57;;;14.90;;
28481;SDS011;15703;49.588;6.260;2022-12-07T01:27:22;22.97;;;16.17;;
28481;SDS011;15703;49.588;6.260;2022-12-07T01:29:44;22.30;;;15.03;;
28481;SDS011;15703;49.588;6.260;2022-12-07T01:32:06;21.20;;;14.80;;
28481;SDS011;15703;49.588;6.260;2022-12-07T01:34:28;23.83;;;15.73;;
28481;SDS011;15703;49.588;6.260;2022-12-07T01:36:51;21.77;;;15.73;;
28481;SDS011;15703;49.588;6.260;2022-12-07T01:39:13;26.27;;;16.00;;
28481;SDS011;15703;49.588;6.260;2022-12-07T01:41:36;24.20;;;16.47;;
28481;SDS011;15703;49.588;6.260;2022-12-07T01:44:07;21.83;;;14.23;;
28481;SDS011;15703;49.588;6.260;2022-12-07T01:46:29;21.20;;;14.57;;
28481;SDS011;15703;49.588;6.260;2022-12-07T01:48:52;19.77;;;14.53;;
28481;SDS011;15703;49.588;6.260;2022-12-07T01:51:14;22.33;;;14.53;;
28481;SDS011;15703;49.588;6.260;2022-12-07T01:53:37;20.27;;;15.43;;
28481;SDS011;15703;49.588;6.260;2022-12-07T01:56:00;24.30;;;14.97;;
28481;SDS011;15703;49.588;6.260;2022-12-07T01:58:23;25.40;;;16.57;;
28481;SDS011;15703;49.588;6.260;2022-12-07T02:00:46;26.20;;;15.37;;
28481;SDS011;15703;49.588;6.260;2022-12-07T02:03:10;26.43;;;17.50;;
28481;SDS011;15703;49.588;6.260;2022-12-07T02:05:33;25.13;;;15.77;;
28481;SDS011;15703;49.588;6.260;2022-12-07T02:07:56;24.77;;;16.80;;
28481;SDS011;15703;49.588;6.260;2022-12-07T02:10:20;26.40;;;16.37;;
28481;SDS011;15703;49.588;6.260;2022-12-07T02:12:43;23.40;;;16.47;;
28481;SDS011;15703;49.588;6.260;2022-12-07T02:15:12;24.03;;;15.87;;
28481;SDS011;15703;49.588;6.260;2022-12-07T02:17:47;28.60;;;17.43;;
28481;SDS011;15703;49.588;6.260;2022-12-07T02:20:17;24.37;;;17.10;;
28481;SDS011;15703;49.588;6.260;2022-12-07T02:27:52;28.07;;;18.50;;
28481;SDS011;15703;49.588;6.260;2022-12-07T02:30:19;27.23;;;17.03;;
28481;SDS011;15703;49.588;6.260;2022-12-07T02:32:58;27.60;;;17.10;;
28481;SDS011;15703;49.588;6.260;2022-12-07T02:35:24;31.77;;;18.07;;
28481;SDS011;15703;49.588;6.260;2022-12-07T02:40:23;29.03;;;17.70;;
28481;SDS011;15703;49.588;6.260;2022-12-07T02:42:47;27.47;;;17.57;;
28481;SDS011;15703;49.588;6.260;2022-12-07T03:04:33;33.63;;;18.97;;
28481;SDS011;15703;49.588;6.260;2022-12-07T03:07:05;30.10;;;18.90;;
28481;SDS011;15703;49.588;6.260;2022-12-07T03:09:33;32.47;;;19.13;;
28481;SDS011;15703;49.588;6.260;2022-12-07T03:12:04;33.57;;;18.07;;
28481;SDS011;15703;49.588;6.260;2022-12-07T03:14:30;27.63;;;17.63;;
28481;SDS011;15703;49.588;6.260;2022-12-07T03:16:55;31.53;;;18.70;;
28481;SDS011;15703;49.588;6.260;2022-12-07T03:19:20;26.57;;;18.47;;
28481;SDS011;15703;49.588;6.260;2022-12-07T03:21:47;31.60;;;19.87;;
28481;SDS011;15703;49.588;6.260;2022-12-07T03:24:15;32.90;;;19.13;;
28481;SDS011;15703;49.588;6.260;2022-12-07T03:26:41;32.77;;;19.20;;
28481;SDS011;15703;49.588;6.260;2022-12-07T03:29:07;28.97;;;17.90;;
28481;SDS011;15703;49.588;6.260;2022-12-07T03:31:34;30.10;;;19.23;;
28481;SDS011;15703;49.588;6.260;2022-12-07T03:34:11;30.13;;;18.03;;
28481;SDS011;15703;49.588;6.260;2022-12-07T03:36:36;30.13;;;17.70;;
28481;SDS011;15703;49.588;6.260;2022-12-07T03:39:14;29.80;;;17.57;;
28481;SDS011;15703;49.588;6.260;2022-12-07T03:41:39;30.00;;;18.17;;
28481;SDS011;15703;49.588;6.260;2022-12-07T03:44:05;30.03;;;19.13;;
28481;SDS011;15703;49.588;6.260;2022-12-07T03:46:44;26.13;;;17.80;;
28481;SDS011;15703;49.588;6.260;2022-12-07T03:51:34;27.07;;;17.37;;
28481;SDS011;15703;49.588;6.260;2022-12-07T03:56:41;27.03;;;17.10;;
28481;SDS011;15703;49.588;6.260;2022-12-07T03:59:04;28.70;;;18.30;;
28481;SDS011;15703;49.588;6.260;2022-12-07T04:01:27;30.33;;;18.10;;
28481;SDS011;15703;49.588;6.260;2022-12-07T04:03:50;30.87;;;18.43;;
28481;SDS011;15703;49.588;6.260;2022-12-07T04:06:12;28.80;;;18.00;;
28481;SDS011;15703;49.588;6.260;2022-12-07T04:08:34;28.70;;;19.37;;
28481;SDS011;15703;49.588;6.260;2022-12-07T04:10:56;31.83;;;19.93;;
28481;SDS011;15703;49.588;6.260;2022-12-07T04:13:18;35.83;;;20.10;;
28481;SDS011;15703;49.588;6.260;2022-12-07T04:15:41;31.63;;;19.10;;
28481;SDS011;15703;49.588;6.260;2022-12-07T04:18:03;30.57;;;19.47;;
28481;SDS011;15703;49.588;6.260;2022-12-07T04:20:25;30.33;;;18.83;;
28481;SDS011;15703;49.588;6.260;2022-12-07T04:22:48;29.17;;;18.73;;
28481;SDS011;15703;49.588;6.260;2022-12-07T04:25:10;28.87;;;18.17;;
28481;SDS011;15703;49.588;6.260;2022-12-07T04:27:32;32.93;;;18.53;;
28481;SDS011;15703;49.588;6.260;2022-12-07T04:29:55;31.83;;;18.83;;
28481;SDS011;15703;49.588;6.260;2022-12-07T04:32:17;30.87;;;17.83;;
28481;SDS011;15703;49.588;6.260;2022-12-07T04:34:39;30.80;;;17.80;;
28481;SDS011;15703;49.588;6.260;2022-12-07T04:37:02;30.10;;;18.53;;
28481;SDS011;15703;49.588;6.260;2022-12-07T04:39:28;32.27;;;17.97;;
28481;SDS011;15703;49.588;6.260;2022-12-07T04:41:50;32.63;;;19.93;;
28481;SDS011;15703;49.588;6.260;2022-12-07T04:44:13;29.27;;;18.77;;
28481;SDS011;15703;49.588;6.260;2022-12-07T04:46:36;33.60;;;19.93;;
28481;SDS011;15703;49.588;6.260;2022-12-07T04:48:58;32.53;;;19.47;;
28481;SDS011;15703;49.588;6.260;2022-12-07T04:51:26;30.27;;;18.57;;
28481;SDS011;15703;49.588;6.260;2022-12-07T04:53:50;31.50;;;18.50;;
28481;SDS011;15703;49.588;6.260;2022-12-07T04:56:13;31.37;;;18.10;;
28481;SDS011;15703;49.588;6.260;2022-12-07T04:58:35;34.13;;;19.23;;
28481;SDS011;15703;49.588;6.260;2022-12-07T05:00:57;32.33;;;18.30;;
28481;SDS011;15703;49.588;6.260;2022-12-07T05:03:20;34.57;;;21.00;;
28481;SDS011;15703;49.588;6.260;2022-12-07T05:05:42;33.70;;;20.00;;
28481;SDS011;15703;49.588;6.260;2022-12-07T05:08:04;32.23;;;19.60;;
28481;SDS011;15703;49.588;6.260;2022-12-07T05:10:27;33.47;;;20.07;;
28481;SDS011;15703;49.588;6.260;2022-12-07T05:12:49;34.70;;;19.30;;
28481;SDS011;15703;49.588;6.260;2022-12-07T05:15:12;29.23;;;19.20;;
28481;SDS011;15703;49.588;6.260;2022-12-07T05:17:34;29.70;;;18.00;;
28481;SDS011;15703;49.588;6.260;2022-12-07T05:19:57;32.47;;;19.67;;
28481;SDS011;15703;49.588;6.260;2022-12-07T05:22:19;33.77;;;20.20;;
28481;SDS011;15703;49.588;6.260;2022-12-07T05:24:42;32.93;;;18.63;;
28481;SDS011;15703;49.588;6.260;2022-12-07T05:27:04;28.77;;;18.73;;
28481;SDS011;15703;49.588;6.260;2022-12-07T05:29:26;31.20;;;18.90;;
28481;SDS011;15703;49.588;6.260;2022-12-07T05:31:49;30.33;;;19.23;;
28481;SDS011;15703;49.588;6.260;2022-12-07T05:34:11;32.83;;;18.90;;
28481;SDS011;15703;49.588;6.260;2022-12-07T05:36:34;31.93;;;19.53;;
28481;SDS011;15703;49.588;6.260;2022-12-07T05:38:56;36.47;;;19.80;;
28481;SDS011;15703;49.588;6.260;2022-12-07T05:41:18;31.57;;;19.33;;
28481;SDS011;15703;49.588;6.260;2022-12-07T05:43:59;35.07;;;21.23;;
28481;SDS011;15703;49.588;6.260;2022-12-07T05:46:21;35.53;;;20.50;;
28481;SDS011;15703;49.588;6.260;2022-12-07T05:48:44;41.33;;;20.23;;
28481;SDS011;15703;49.588;6.260;2022-12-07T05:51:06;33.70;;;19.90;;
28481;SDS011;15703;49.588;6.260;2022-12-07T05:53:28;33.47;;;20.17;;
28481;SDS011;15703;49.588;6.260;2022-12-07T05:55:51;32.43;;;21.77;;
28481;SDS011;15703;49.588;6.260;2022-12-07T05:58:13;34.03;;;20.03;;
28481;SDS011;15703;49.588;6.260;2022-12-07T06:00:55;33.20;;;20.17;;
28481;SDS011;15703;49.588;6.260;2022-12-07T06:03:17;34.87;;;19.87;;
28481;SDS011;15703;49.588;6.260;2022-12-07T06:05:39;34.13;;;19.30;;
28481;SDS011;15703;49.588;6.260;2022-12-07T06:08:02;35.67;;;19.83;;
28481;SDS011;15703;49.588;6.260;2022-12-07T06:10:26;34.67;;;19.03;;
28481;SDS011;15703;49.588;6.260;2022-12-07T06:12:48;36.93;;;20.23;;
28481;SDS011;15703;49.588;6.260;2022-12-07T06:15:11;38.23;;;20.03;;
28481;SDS011;15703;49.588;6.260;2022-12-07T06:17:34;31.73;;;18.23;;
28481;SDS011;15703;49.588;6.260;2022-12-07T06:19:56;38.10;;;20.10;;
28481;SDS011;15703;49.588;6.260;2022-12-07T06:22:18;36.20;;;19.40;;
28481;SDS011;15703;49.588;6.260;2022-12-07T06:24:40;32.40;;;19.73;;
28481;SDS011;15703;49.588;6.260;2022-12-07T06:27:03;32.43;;;18.83;;
28481;SDS011;15703;49.588;6.260;2022-12-07T06:29:25;32.30;;;17.63;;
28481;SDS011;15703;49.588;6.260;2022-12-07T06:31:47;33.00;;;18.17;;
28481;SDS011;15703;49.588;6.260;2022-12-07T06:34:12;31.60;;;17.53;;
28481;SDS011;15703;49.588;6.260;2022-12-07T06:36:34;32.40;;;18.03;;
28481;SDS011;15703;49.588;6.260;2022-12-07T06:38:57;35.43;;;19.80;;
28481;SDS011;15703;49.588;6.260;2022-12-07T06:41:19;35.13;;;18.83;;
28481;SDS011;15703;49.588;6.260;2022-12-07T06:43:41;37.37;;;19.57;;
28481;SDS011;15703;49.588;6.260;2022-12-07T06:46:04;31.53;;;18.33;;
28481;SDS011;15703;49.588;6.260;2022-12-07T06:48:26;32.60;;;19.00;;
28481;SDS011;15703;49.588;6.260;2022-12-07T06:50:48;33.53;;;18.90;;
28481;SDS011;15703;49.588;6.260;2022-12-07T06:53:15;35.90;;;19.00;;
28481;SDS011;15703;49.588;6.260;2022-12-07T06:55:37;32.87;;;18.50;;
28481;SDS011;15703;49.588;6.260;2022-12-07T06:58:00;36.00;;;18.80;;
28481;SDS011;15703;49.588;6.260;2022-12-07T07:00:23;34.33;;;19.40;;
28481;SDS011;15703;49.588;6.260;2022-12-07T07:02:45;38.20;;;19.13;;
28481;SDS011;15703;49.588;6.260;2022-12-07T07:05:08;39.87;;;21.80;;
28481;SDS011;15703;49.588;6.260;2022-12-07T07:07:30;39.07;;;20.53;;
28481;SDS011;15703;49.588;6.260;2022-12-07T07:10:12;40.90;;;20.87;;
28481;SDS011;15703;49.588;6.260;2022-12-07T07:12:34;37.60;;;20.63;;
28481;SDS011;15703;49.588;6.260;2022-12-07T07:14:56;37.00;;;19.77;;
28481;SDS011;15703;49.588;6.260;2022-12-07T07:17:19;39.27;;;20.30;;
28481;SDS011;15703;49.588;6.260;2022-12-07T07:19:53;42.20;;;21.40;;
28481;SDS011;15703;49.588;6.260;2022-12-07T07:22:16;35.33;;;20.03;;
28481;SDS011;15703;49.588;6.260;2022-12-07T07:24:39;34.90;;;19.37;;
28481;SDS011;15703;49.588;6.260;2022-12-07T07:27:04;33.47;;;19.40;;
28481;SDS011;15703;49.588;6.260;2022-12-07T07:29:29;33.97;;;19.23;;
28481;SDS011;15703;49.588;6.260;2022-12-07T07:31:56;35.93;;;20.37;;
28481;SDS011;15703;49.588;6.260;2022-12-07T07:34:27;35.13;;;18.47;;
28481;SDS011;15703;49.588;6.260;2022-12-07T07:36:53;34.57;;;17.93;;
28481;SDS011;15703;49.588;6.260;2022-12-07T07:39:16;34.50;;;18.97;;
28481;SDS011;15703;49.588;6.260;2022-12-07T07:41:42;34.57;;;19.30;;
28481;SDS011;15703;49.588;6.260;2022-12-07T07:44:08;33.63;;;19.00;;
28481;SDS011;15703;49.588;6.260;2022-12-07T07:46:34;32.53;;;17.77;;
28481;SDS011;15703;49.588;6.260;2022-12-07T07:48:57;34.90;;;18.87;;
28481;SDS011;15703;49.588;6.260;2022-12-07T07:51:20;30.47;;;17.07;;
28481;SDS011;15703;49.588;6.260;2022-12-07T07:53:45;33.53;;;18.47;;
28481;SDS011;15703;49.588;6.260;2022-12-07T07:56:07;34.17;;;19.63;;
28481;SDS011;15703;49.588;6.260;2022-12-07T07:58:30;27.37;;;16.93;;
28481;SDS011;15703;49.588;6.260;2022-12-07T08:00:52;28.93;;;17.53;;
28481;SDS011;15703;49.588;6.260;2022-12-07T08:03:19;33.87;;;18.10;;
28481;SDS011;15703;49.588;6.260;2022-12-07T08:05:42;29.47;;;16.20;;
28481;SDS011;15703;49.588;6.260;2022-12-07T08:08:11;28.67;;;16.33;;
28481;SDS011;15703;49.588;6.260;2022-12-07T08:10:34;33.10;;;18.07;;
28481;SDS011;15703;49.588;6.260;2022-12-07T08:13:10;27.57;;;15.27;;
28481;SDS011;15703;49.588;6.260;2022-12-07T08:15:33;26.23;;;15.97;;
28481;SDS011;15703;49.588;6.260;2022-12-07T08:18:01;22.50;;;14.37;;
28481;SDS011;15703;49.588;6.260;2022-12-07T08:20:24;19.97;;;13.60;;
28481;SDS011;15703;49.588;6.260;2022-12-07T08:22:47;20.40;;;12.70;;
28481;SDS011;15703;49.588;6.260;2022-12-07T08:25:14;22.37;;;13.23;;
28481;SDS011;15703;49.588;6.260;2022-12-07T08:27:36;20.83;;;12.70;;
28481;SDS011;15703;49.588;6.260;2022-12-07T08:29:58;23.17;;;14.27;;
28481;SDS011;15703;49.588;6.260;2022-12-07T08:32:22;30.60;;;13.83;;
28481;SDS011;15703;49.588;6.260;2022-12-07T08:34:44;20.83;;;13.27;;
28481;SDS011;15703;49.588;6.260;2022-12-07T08:37:06;20.47;;;13.10;;
28481;SDS011;15703;49.588;6.260;2022-12-07T08:39:29;17.10;;;12.50;;
28481;SDS011;15703;49.588;6.260;2022-12-07T08:41:54;19.43;;;12.03;;
28481;SDS011;15703;49.588;6.260;2022-12-07T08:44:17;18.50;;;12.43;;
28481;SDS011;15703;49.588;6.260;2022-12-07T08:46:49;18.77;;;12.67;;
28481;SDS011;15703;49.588;6.260;2022-12-07T08:49:16;17.73;;;11.97;;
28481;SDS011;15703;49.588;6.260;2022-12-07T08:51:39;19.30;;;12.87;;
28481;SDS011;15703;49.588;6.260;2022-12-07T08:54:07;19.73;;;12.97;;
28481;SDS011;15703;49.588;6.260;2022-12-07T08:56:32;21.37;;;13.47;;
28481;SDS011;15703;49.588;6.260;2022-12-07T08:58:54;19.80;;;11.97;;
28481;SDS011;15703;49.588;6.260;2022-12-07T09:01:18;19.23;;;12.37;;
28481;SDS011;15703;49.588;6.260;2022-12-07T09:03:43;15.10;;;10.47;;
28481;SDS011;15703;49.588;6.260;2022-12-07T09:06:06;19.03;;;10.83;;
28481;SDS011;15703;49.588;6.260;2022-12-07T09:08:41;17.73;;;11.77;;
28481;SDS011;15703;49.588;6.260;2022-12-07T09:11:04;14.40;;;9.97;;
28481;SDS011;15703;49.588;6.260;2022-12-07T09:13:32;15.10;;;10.23;;
28481;SDS011;15703;49.588;6.260;2022-12-07T09:15:54;12.80;;;8.77;;
28481;SDS011;15703;49.588;6.260;2022-12-07T09:18:17;10.97;;;9.03;;
28481;SDS011;15703;49.588;6.260;2022-12-07T09:20:43;11.10;;;8.90;;
28481;SDS011;15703;49.588;6.260;2022-12-07T09:23:10;12.47;;;9.00;;
28481;SDS011;15703;49.588;6.260;2022-12-07T09:25:35;12.33;;;8.83;;
28481;SDS011;15703;49.588;6.260;2022-12-07T09:28:06;10.50;;;8.17;;
28481;SDS011;15703;49.588;6.260;2022-12-07T09:30:29;12.83;;;8.17;;
28481;SDS011;15703;49.588;6.260;2022-12-07T09:32:52;8.80;;;7.30;;
28481;SDS011;15703;49.588;6.260;2022-12-07T09:35:15;10.33;;;7.47;;
28481;SDS011;15703;49.588;6.260;2022-12-07T09:37:41;10.77;;;7.27;;
28481;SDS011;15703;49.588;6.260;2022-12-07T09:40:04;7.87;;;7.00;;
28481;SDS011;15703;49.588;6.260;2022-12-07T09:42:37;13.10;;;8.07;;
28481;SDS011;15703;49.588;6.260;2022-12-07T09:45:01;9.70;;;7.40;;
28481;SDS011;15703;49.588;6.260;2022-12-07T09:47:30;9.27;;;6.77;;
28481;SDS011;15703;49.588;6.260;2022-12-07T09:49:57;11.03;;;7.27;;
28481;SDS011;15703;49.588;6.260;2022-12-07T09:52:27;8.73;;;6.63;;
28481;SDS011;15703;49.588;6.260;2022-12-07T09:54:59;10.07;;;6.80;;
28481;SDS011;15703;49.588;6.260;2022-12-07T09:57:33;7.63;;;6.83;;
28481;SDS011;15703;49.588;6.260;2022-12-07T10:00:02;7.33;;;6.60;;
28481;SDS011;15703;49.588;6.260;2022-12-07T10:02:40;8.10;;;5.80;;
28481;SDS011;15703;49.588;6.260;2022-12-07T10:05:09;8.20;;;5.53;;
28481;SDS011;15703;49.588;6.260;2022-12-07T10:07:41;6.47;;;5.77;;
28481;SDS011;15703;49.588;6.260;2022-12-07T10:10:04;8.27;;;5.00;;
28481;SDS011;15703;49.588;6.260;2022-12-07T10:12:30;5.47;;;4.80;;
28481;SDS011;15703;49.588;6.260;2022-12-07T10:14:57;6.00;;;4.37;;
28481;SDS011;15703;49.588;6.260;2022-12-07T10:17:39;5.33;;;4.30;;
28481;SDS011;15703;49.588;6.260;2022-12-07T10:20:12;7.33;;;4.83;;
28481;SDS011;15703;49.588;6.260;2022-12-07T10:22:35;6.53;;;4.73;;
28481;SDS011;15703;49.588;6.260;2022-12-07T10:24:57;6.87;;;4.83;;
28481;SDS011;15703;49.588;6.260;2022-12-07T10:27:30;5.73;;;4.57;;
28481;SDS011;15703;49.588;6.260;2022-12-07T10:29:53;6.93;;;4.37;;
28481;SDS011;15703;49.588;6.260;2022-12-07T10:34:41;7.20;;;5.37;;
28481;SDS011;15703;49.588;6.260;2022-12-07T10:39:55;6.90;;;5.40;;
28481;SDS011;15703;49.588;6.260;2022-12-07T10:42:25;5.60;;;4.77;;
28481;SDS011;15703;49.588;6.260;2022-12-07T10:44:49;8.47;;;6.50;;
28481;SDS011;15703;49.588;6.260;2022-12-07T10:55:54;6.90;;;5.87;;
28481;SDS011;15703;49.588;6.260;2022-12-07T10:58:02;7.13;;;5.03;;
28481;SDS011;15703;49.588;6.260;2022-12-07T11:00:34;8.97;;;5.47;;
28481;SDS011;15703;49.588;6.260;2022-12-07T11:08:31;10.57;;;6.33;;
28481;SDS011;15703;49.588;6.260;2022-12-07T11:11:02;7.20;;;5.40;;
28481;SDS011;15703;49.588;6.260;2022-12-07T11:21:53;8.20;;;6.00;;
28481;SDS011;15703;49.588;6.260;2022-12-07T11:24:19;6.23;;;5.17;;
28481;SDS011;15703;49.588;6.260;2022-12-07T11:37:13;4.93;;;4.43;;
28481;SDS011;15703;49.588;6.260;2022-12-07T11:39:49;7.43;;;5.27;;
28481;SDS011;15703;49.588;6.260;2022-12-07T11:47:18;6.03;;;4.33;;
28481;SDS011;15703;49.588;6.260;2022-12-07T11:50:03;6.40;;;4.57;;
28481;SDS011;15703;49.588;6.260;2022-12-07T11:55:21;8.10;;;4.60;;
28481;SDS011;15703;49.588;6.260;2022-12-07T11:57:56;5.50;;;4.50;;
28481;SDS011;15703;49.588;6.260;2022-12-07T12:00:24;5.83;;;4.60;;
28481;SDS011;15703;49.588;6.260;2022-12-07T12:03:15;5.67;;;4.07;;
28481;SDS011;15703;49.588;6.260;2022-12-07T12:05:38;6.30;;;3.83;;
28481;SDS011;15703;49.588;6.260;2022-12-07T12:08:13;5.27;;;3.67;;
28481;SDS011;15703;49.588;6.260;2022-12-07T12:11:25;8.20;;;3.90;;
28481;SDS011;15703;49.588;6.260;2022-12-07T12:14:01;6.70;;;4.20;;
28481;SDS011;15703;49.588;6.260;2022-12-07T12:22:23;4.03;;;3.63;;
28481;SDS011;15703;49.588;6.260;2022-12-07T12:24:52;4.90;;;4.20;;
28481;SDS011;15703;49.588;6.260;2022-12-07T12:27:23;5.37;;;4.17;;
28481;SDS011;15703;49.588;6.260;2022-12-07T12:29:50;5.27;;;4.10;;
28481;SDS011;15703;49.588;6.260;2022-12-07T12:37:41;4.90;;;3.70;;
28481;SDS011;15703;49.588;6.260;2022-12-07T12:42:54;5.30;;;3.90;;
28481;SDS011;15703;49.588;6.260;2022-12-07T12:45:28;6.57;;;4.03;;
28481;SDS011;15703;49.588;6.260;2022-12-07T12:53:02;4.60;;;4.10;;
28481;SDS011;15703;49.588;6.260;2022-12-07T12:55:29;7.03;;;3.63;;
28481;SDS011;15703;49.588;6.260;2022-12-07T12:58:29;16.00;;;4.20;;
28481;SDS011;15703;49.588;6.260;2022-12-07T13:03:34;4.03;;;3.63;;
28481;SDS011;15703;49.588;6.260;2022-12-07T13:08:47;5.07;;;4.00;;
28481;SDS011;15703;49.588;6.260;2022-12-07T13:11:20;5.53;;;4.37;;
28481;SDS011;15703;49.588;6.260;2022-12-07T13:13:48;7.33;;;3.90;;
28481;SDS011;15703;49.588;6.260;2022-12-07T13:18:37;5.00;;;4.13;;
28481;SDS011;15703;49.588;6.260;2022-12-07T13:21:41;6.07;;;4.43;;
28481;SDS011;15703;49.588;6.260;2022-12-07T13:24:00;7.30;;;5.10;;
28481;SDS011;15703;49.588;6.260;2022-12-07T13:26:34;8.70;;;5.40;;
28481;SDS011;15703;49.588;6.260;2022-12-07T13:29:13;5.77;;;4.90;;
28481;SDS011;15703;49.588;6.260;2022-12-07T13:34:33;8.10;;;6.03;;
28481;SDS011;15703;49.588;6.260;2022-12-07T13:36:56;9.57;;;6.13;;
28481;SDS011;15703;49.588;6.260;2022-12-07T13:39:20;9.13;;;6.87;;
28481;SDS011;15703;49.588;6.260;2022-12-07T13:41:56;13.80;;;7.33;;
28481;SDS011;15703;49.588;6.260;2022-12-07T13:44:26;12.83;;;7.23;;
28481;SDS011;15703;49.588;6.260;2022-12-07T13:46:57;9.60;;;6.73;;
28481;SDS011;15703;49.588;6.260;2022-12-07T13:49:24;11.70;;;7.40;;
28481;SDS011;15703;49.588;6.260;2022-12-07T13:51:47;10.23;;;7.13;;
28481;SDS011;15703;49.588;6.260;2022-12-07T13:54:10;10.00;;;7.40;;
28481;SDS011;15703;49.588;6.260;2022-12-07T13:56:34;13.93;;;9.07;;
28481;SDS011;15703;49.588;6.260;2022-12-07T13:59:00;12.63;;;8.50;;
28481;SDS011;15703;49.588;6.260;2022-12-07T14:01:27;13.03;;;8.87;;
28481;SDS011;15703;49.588;6.260;2022-12-07T14:03:54;13.27;;;8.03;;
28481;SDS011;15703;49.588;6.260;2022-12-07T14:06:24;17.50;;;9.73;;
28481;SDS011;15703;49.588;6.260;2022-12-07T14:08:49;13.47;;;9.00;;
28481;SDS011;15703;49.588;6.260;2022-12-07T14:11:28;14.70;;;9.30;;
28481;SDS011;15703;49.588;6.260;2022-12-07T14:14:00;14.47;;;8.97;;
28481;SDS011;15703;49.588;6.260;2022-12-07T14:18:51;11.33;;;8.97;;
28481;SDS011;15703;49.588;6.260;2022-12-07T14:21:34;14.10;;;8.77;;
28481;SDS011;15703;49.588;6.260;2022-12-07T14:26:31;10.60;;;8.50;;
28481;SDS011;15703;49.588;6.260;2022-12-07T14:29:18;11.73;;;8.30;;
28481;SDS011;15703;49.588;6.260;2022-12-07T14:31:39;16.73;;;8.57;;
28481;SDS011;15703;49.588;6.260;2022-12-07T14:34:01;9.77;;;7.63;;
28481;SDS011;15703;49.588;6.260;2022-12-07T14:36:24;11.80;;;8.10;;
28481;SDS011;15703;49.588;6.260;2022-12-07T14:38:47;13.23;;;8.67;;
28481;SDS011;15703;49.588;6.260;2022-12-07T14:41:13;10.80;;;7.20;;
28481;SDS011;15703;49.588;6.260;2022-12-07T14:43:56;12.87;;;7.97;;
28481;SDS011;15703;49.588;6.260;2022-12-07T14:46:39;9.40;;;6.53;;
28481;SDS011;15703;49.588;6.260;2022-12-07T14:49:02;12.93;;;6.93;;
28481;SDS011;15703;49.588;6.260;2022-12-07T14:51:45;8.57;;;6.47;;
28481;SDS011;15703;49.588;6.260;2022-12-07T14:54:29;11.27;;;7.77;;
28481;SDS011;15703;49.588;6.260;2022-12-07T14:56:52;8.83;;;7.27;;
28481;SDS011;15703;49.588;6.260;2022-12-07T14:59:15;8.17;;;7.03;;
28481;SDS011;15703;49.588;6.260;2022-12-07T15:01:38;9.20;;;7.07;;
28481;SDS011;15703;49.588;6.260;2022-12-07T15:04:01;6.90;;;6.30;;
28481;SDS011;15703;49.588;6.260;2022-12-07T15:06:24;8.63;;;6.83;;
28481;SDS011;15703;49.588;6.260;2022-12-07T15:08:46;9.63;;;6.27;;
28481;SDS011;15703;49.588;6.260;2022-12-07T15:11:15;11.23;;;6.43;;
28481;SDS011;15703;49.588;6.260;2022-12-07T15:13:38;8.53;;;5.80;;
28481;SDS011;15703;49.588;6.260;2022-12-07T15:16:19;8.63;;;6.07;;
28481;SDS011;15703;49.588;6.260;2022-12-07T15:18:42;9.70;;;6.97;;
28481;SDS011;15703;49.588;6.260;2022-12-07T15:21:24;8.77;;;5.80;;
28481;SDS011;15703;49.588;6.260;2022-12-07T15:23:47;7.40;;;6.07;;
28481;SDS011;15703;49.588;6.260;2022-12-07T15:26:10;7.87;;;6.57;;
28481;SDS011;15703;49.588;6.260;2022-12-07T15:28:32;9.27;;;6.33;;
28481;SDS011;15703;49.588;6.260;2022-12-07T15:30:54;10.67;;;7.23;;
28481;SDS011;15703;49.588;6.260;2022-12-07T15:33:17;10.33;;;6.87;;
28481;SDS011;15703;49.588;6.260;2022-12-07T15:35:42;12.77;;;7.13;;
28481;SDS011;15703;49.588;6.260;2022-12-07T15:38:05;9.47;;;6.80;;
28481;SDS011;15703;49.588;6.260;2022-12-07T15:40:28;9.23;;;7.07;;
28481;SDS011;15703;49.588;6.260;2022-12-07T15:42:50;11.67;;;7.33;;
28481;SDS011;15703;49.588;6.260;2022-12-07T15:45:12;8.13;;;6.87;;
28481;SDS011;15703;49.588;6.260;2022-12-07T15:47:36;11.00;;;7.13;;
28481;SDS011;15703;49.588;6.260;2022-12-07T15:50:19;9.57;;;7.20;;
28481;SDS011;15703;49.588;6.260;2022-12-07T15:52:41;9.87;;;7.90;;
28481;SDS011;15703;49.588;6.260;2022-12-07T15:55:04;10.23;;;7.07;;
28481;SDS011;15703;49.588;6.260;2022-12-07T15:57:26;10.07;;;7.43;;
28481;SDS011;15703;49.588;6.260;2022-12-07T15:59:49;10.20;;;7.37;;
28481;SDS011;15703;49.588;6.260;2022-12-07T16:02:13;14.13;;;7.53;;
28481;SDS011;15703;49.588;6.260;2022-12-07T16:04:35;12.83;;;8.33;;
28481;SDS011;15703;49.588;6.260;2022-12-07T16:06:58;9.77;;;7.83;;
28481;SDS011;15703;49.588;6.260;2022-12-07T16:09:20;12.27;;;7.67;;
28481;SDS011;15703;49.588;6.260;2022-12-07T16:11:42;11.07;;;7.60;;
28481;SDS011;15703;49.588;6.260;2022-12-07T16:14:04;11.20;;;7.43;;
28481;SDS011;15703;49.588;6.260;2022-12-07T16:16:27;9.87;;;7.90;;